sensor_id;sensor_type;location;lat;lon;timestamp;temperature;humidity
58951;DHT22;44730;53.158;6.398;2022-08-11T00:00:38;16.50;99.90
58951;DHT22;44730;53.158;6.398;2022-08-11T00:03:09;16.50;99.90
58951;DHT22;44730;53.158;6.398;2022-08-11T00:05:46;16.50;99.90
58951;DHT22;44730;53.158;6.398;2022-08-11T00:08:26;16.40;99.90
58951;DHT22;44730;53.158;6.398;2022-08-11T00:10:55;16.40;99.90
58951;DHT22;44730;53.158;6.398;2022-08-11T00:13:22;16.40;99.90
58951;DHT22;44730;53.158;6.398;2022-08-11T00:15:55;16.40;99.90
58951;DHT22;44730;53.158;6.398;2022-08-11T00:18:21;16.30;99.90
58951;DHT22;44730;53.158;6.398;2022-08-11T00:20:50;16.30;99.90
58951;DHT22;44730;53.158;6.398;2022-08-11T00:23:22;16.30;99.90
58951;DHT22;44730;53.158;6.398;2022-08-11T00:25:50;16.30;99.90
58951;DHT22;44730;53.158;6.398;2022-08-11T00:28:28;16.30;99.90
58951;DHT22;44730;53.158;6.398;2022-08-11T00:30:56;16.20;99.90
58951;DHT22;44730;53.158;6.398;2022-08-11T00:33:25;16.20;99.90
58951;DHT22;44730;53.158;6.398;2022-08-11T00:35:58;16.20;99.90
58951;DHT22;44730;53.158;6.398;2022-08-11T00:38:28;16.20;99.90
58951;DHT22;44730;53.158;6.398;2022-08-11T00:44:02;16.10;99.90
58951;DHT22;44730;53.158;6.398;2022-08-11T00:49:42;16.00;99.90
58951;DHT22;44730;53.158;6.398;2022-08-11T00:55:24;15.90;99.90
58951;DHT22;44730;53.158;6.398;2022-08-11T01:12:03;15.70;99.90
58951;DHT22;44730;53.158;6.398;2022-08-11T01:21:12;15.60;99.90
58951;DHT22;44730;53.158;6.398;2022-08-11T01:24:13;15.50;99.90
58951;DHT22;44730;53.158;6.398;2022-08-11T01:38:25;15.30;99.90
58951;DHT22;44730;53.158;6.398;2022-08-11T01:50:23;15.20;99.90
58951;DHT22;44730;53.158;6.398;2022-08-11T01:53:20;15.20;99.90
58951;DHT22;44730;53.158;6.398;2022-08-11T01:58:32;15.10;99.90
58951;DHT22;44730;53.158;6.398;2022-08-11T02:03:46;15.10;99.90
58951;DHT22;44730;53.158;6.398;2022-08-11T02:06:56;15.00;99.90
58951;DHT22;44730;53.158;6.398;2022-08-11T02:09:31;15.00;99.90
58951;DHT22;44730;53.158;6.398;2022-08-11T02:12:09;15.00;99.90
58951;DHT22;44730;53.158;6.398;2022-08-11T02:17:58;14.90;99.90
58951;DHT22;44730;53.158;6.398;2022-08-11T02:20:29;14.90;99.90
58951;DHT22;44730;53.158;6.398;2022-08-11T02:35:03;14.80;99.90
58951;DHT22;44730;53.158;6.398;2022-08-11T02:59:30;14.60;99.90
58951;DHT22;44730;53.158;6.398;2022-08-11T03:10:35;14.40;99.90
58951;DHT22;44730;53.158;6.398;2022-08-11T03:13:17;14.50;99.90
58951;DHT22;44730;53.158;6.398;2022-08-11T03:16:18;14.40;99.90
58951;DHT22;44730;53.158;6.398;2022-08-11T03:24:14;14.40;99.90
58951;DHT22;44730;53.158;6.398;2022-08-11T03:29:36;14.30;99.90
58951;DHT22;44730;53.158;6.398;2022-08-11T03:32:23;14.30;99.90
58951;DHT22;44730;53.158;6.398;2022-08-11T03:34:52;14.30;99.90
58951;DHT22;44730;53.158;6.398;2022-08-11T03:37:45;14.20;99.90
58951;DHT22;44730;53.158;6.398;2022-08-11T03:46:11;14.20;99.90
58951;DHT22;44730;53.158;6.398;2022-08-11T03:52:28;14.20;99.90
58951;DHT22;44730;53.158;6.398;2022-08-11T04:34:35;14.00;99.90
58951;DHT22;44730;53.158;6.398;2022-08-11T04:37:31;14.00;99.90
58951;DHT22;44730;53.158;6.398;2022-08-11T04:43:30;14.10;99.90
58951;DHT22;44730;53.158;6.398;2022-08-11T04:46:36;14.10;99.90
58951;DHT22;44730;53.158;6.398;2022-08-11T04:52:22;14.20;99.90
58951;DHT22;44730;53.158;6.398;2022-08-11T05:01:29;14.40;99.90
58951;DHT22;44730;53.158;6.398;2022-08-11T05:12:45;14.80;99.90
58951;DHT22;44730;53.158;6.398;2022-08-11T05:15:17;14.90;99.90
58951;DHT22;44730;53.158;6.398;2022-08-11T05:18:15;15.10;99.90
58951;DHT22;44730;53.158;6.398;2022-08-11T05:21:06;15.40;99.90
58951;DHT22;44730;53.158;6.398;2022-08-11T05:24:42;15.70;99.90
58951;DHT22;44730;53.158;6.398;2022-08-11T05:27:02;16.10;99.90
58951;DHT22;44730;53.158;6.398;2022-08-11T05:32:47;16.70;99.90
58951;DHT22;44730;53.158;6.398;2022-08-11T05:35:43;17.10;99.90
58951;DHT22;44730;53.158;6.398;2022-08-11T05:38:19;17.40;99.90
58951;DHT22;44730;53.158;6.398;2022-08-11T05:41:05;17.70;99.90
58951;DHT22;44730;53.158;6.398;2022-08-11T05:43:50;18.10;99.90
58951;DHT22;44730;53.158;6.398;2022-08-11T05:46:40;18.30;99.90
58951;DHT22;44730;53.158;6.398;2022-08-11T05:49:29;18.70;99.90
58951;DHT22;44730;53.158;6.398;2022-08-11T05:52:16;19.00;99.90
58951;DHT22;44730;53.158;6.398;2022-08-11T05:55:04;19.40;99.90
58951;DHT22;44730;53.158;6.398;2022-08-11T05:58:02;19.70;99.90
58951;DHT22;44730;53.158;6.398;2022-08-11T06:00:30;20.10;99.90
58951;DHT22;44730;53.158;6.398;2022-08-11T06:02:58;20.40;99.90
58951;DHT22;44730;53.158;6.398;2022-08-11T06:05:38;20.60;99.90
58951;DHT22;44730;53.158;6.398;2022-08-11T06:08:06;20.80;99.90
58951;DHT22;44730;53.158;6.398;2022-08-11T06:10:36;21.20;99.90
58951;DHT22;44730;53.158;6.398;2022-08-11T06:13:04;21.50;99.90
58951;DHT22;44730;53.158;6.398;2022-08-11T06:15:32;21.70;99.90
58951;DHT22;44730;53.158;6.398;2022-08-11T06:18:00;21.90;99.90
58951;DHT22;44730;53.158;6.398;2022-08-11T06:20:28;22.00;99.90
58951;DHT22;44730;53.158;6.398;2022-08-11T06:23:06;22.20;99.90
58951;DHT22;44730;53.158;6.398;2022-08-11T06:25:34;22.30;99.90
58951;DHT22;44730;53.158;6.398;2022-08-11T06:28:03;22.40;99.90
58951;DHT22;44730;53.158;6.398;2022-08-11T06:30:40;22.50;99.90
58951;DHT22;44730;53.158;6.398;2022-08-11T06:33:12;22.70;99.90
58951;DHT22;44730;53.158;6.398;2022-08-11T06:35:56;22.70;99.90
58951;DHT22;44730;53.158;6.398;2022-08-11T06:41:22;22.90;99.90
58951;DHT22;44730;53.158;6.398;2022-08-11T06:46:49;23.30;99.90
58951;DHT22;44730;53.158;6.398;2022-08-11T06:49:19;23.30;99.90
58951;DHT22;44730;53.158;6.398;2022-08-11T06:52:12;23.50;99.90
58951;DHT22;44730;53.158;6.398;2022-08-11T06:54:50;23.60;99.90
58951;DHT22;44730;53.158;6.398;2022-08-11T06:57:28;23.70;99.90
58951;DHT22;44730;53.158;6.398;2022-08-11T07:00:16;23.80;99.90
58951;DHT22;44730;53.158;6.398;2022-08-11T07:03:00;23.80;99.90
58951;DHT22;44730;53.158;6.398;2022-08-11T07:05:41;24.10;99.90
58951;DHT22;44730;53.158;6.398;2022-08-11T07:14:27;24.60;99.90
58951;DHT22;44730;53.158;6.398;2022-08-11T07:17:20;24.80;99.90
58951;DHT22;44730;53.158;6.398;2022-08-11T07:19:52;24.90;99.90
58951;DHT22;44730;53.158;6.398;2022-08-11T07:22:57;25.10;99.90
58951;DHT22;44730;53.158;6.398;2022-08-11T07:25:43;25.30;99.90
58951;DHT22;44730;53.158;6.398;2022-08-11T07:28:48;25.50;99.90
58951;DHT22;44730;53.158;6.398;2022-08-11T07:35:11;25.90;99.90
58951;DHT22;44730;53.158;6.398;2022-08-11T07:37:42;26.00;99.90
58951;DHT22;44730;53.158;6.398;2022-08-11T07:40:12;26.10;99.90
58951;DHT22;44730;53.158;6.398;2022-08-11T07:42:39;26.20;99.90
58951;DHT22;44730;53.158;6.398;2022-08-11T07:45:11;26.20;99.90
58951;DHT22;44730;53.158;6.398;2022-08-11T07:47:56;26.20;99.90
58951;DHT22;44730;53.158;6.398;2022-08-11T07:50:42;26.30;99.90
58951;DHT22;44730;53.158;6.398;2022-08-11T07:53:28;26.30;99.90
58951;DHT22;44730;53.158;6.398;2022-08-11T07:55:56;26.60;99.90
58951;DHT22;44730;53.158;6.398;2022-08-11T07:58:23;26.80;99.90
58951;DHT22;44730;53.158;6.398;2022-08-11T08:01:10;27.00;99.90
58951;DHT22;44730;53.158;6.398;2022-08-11T08:03:58;27.10;99.90
58951;DHT22;44730;53.158;6.398;2022-08-11T08:06:42;27.10;99.90
58951;DHT22;44730;53.158;6.398;2022-08-11T08:09:28;27.10;99.90
58951;DHT22;44730;53.158;6.398;2022-08-11T08:12:20;27.30;99.90
58951;DHT22;44730;53.158;6.398;2022-08-11T08:15:07;27.60;99.90
58951;DHT22;44730;53.158;6.398;2022-08-11T08:17:51;27.80;99.90
58951;DHT22;44730;53.158;6.398;2022-08-11T08:20:27;27.90;99.90
58951;DHT22;44730;53.158;6.398;2022-08-11T08:22:58;28.10;99.90
58951;DHT22;44730;53.158;6.398;2022-08-11T08:25:29;28.20;99.90
58951;DHT22;44730;53.158;6.398;2022-08-11T08:27:56;28.30;99.90
58951;DHT22;44730;53.158;6.398;2022-08-11T08:30:25;28.40;99.90
58951;DHT22;44730;53.158;6.398;2022-08-11T08:33:27;28.50;99.90
58951;DHT22;44730;53.158;6.398;2022-08-11T08:35:58;28.60;99.90
58951;DHT22;44730;53.158;6.398;2022-08-11T08:38:51;28.70;99.90
58951;DHT22;44730;53.158;6.398;2022-08-11T08:41:23;28.90;99.90
58951;DHT22;44730;53.158;6.398;2022-08-11T08:43:54;28.90;99.90
58951;DHT22;44730;53.158;6.398;2022-08-11T08:46:24;29.00;99.70
58951;DHT22;44730;53.158;6.398;2022-08-11T08:48:53;29.20;96.70
58951;DHT22;44730;53.158;6.398;2022-08-11T08:51:20;29.30;98.70
58951;DHT22;44730;53.158;6.398;2022-08-11T08:54:08;29.40;98.10
58951;DHT22;44730;53.158;6.398;2022-08-11T08:56:39;29.60;95.90
58951;DHT22;44730;53.158;6.398;2022-08-11T08:59:05;29.60;94.70
58951;DHT22;44730;53.158;6.398;2022-08-11T09:02:07;29.80;95.20
58951;DHT22;44730;53.158;6.398;2022-08-11T09:04:39;30.00;94.40
58951;DHT22;44730;53.158;6.398;2022-08-11T09:07:10;30.00;92.80
58951;DHT22;44730;53.158;6.398;2022-08-11T09:09:41;30.20;92.30
58951;DHT22;44730;53.158;6.398;2022-08-11T09:12:09;30.10;89.90
58951;DHT22;44730;53.158;6.398;2022-08-11T09:14:38;30.40;90.10
58951;DHT22;44730;53.158;6.398;2022-08-11T09:17:23;30.50;89.00
58951;DHT22;44730;53.158;6.398;2022-08-11T09:19:55;30.80;89.30
58951;DHT22;44730;53.158;6.398;2022-08-11T09:22:34;30.90;84.40
58951;DHT22;44730;53.158;6.398;2022-08-11T09:25:21;30.80;81.00
58951;DHT22;44730;53.158;6.398;2022-08-11T09:28:12;30.70;79.80
58951;DHT22;44730;53.158;6.398;2022-08-11T09:30:49;30.90;81.30
58951;DHT22;44730;53.158;6.398;2022-08-11T09:33:20;31.10;78.40
58951;DHT22;44730;53.158;6.398;2022-08-11T09:35:48;31.30;76.50
58951;DHT22;44730;53.158;6.398;2022-08-11T09:38:16;31.50;76.10
58951;DHT22;44730;53.158;6.398;2022-08-11T09:41:02;31.60;75.40
58951;DHT22;44730;53.158;6.398;2022-08-11T09:43:30;31.50;76.20
58951;DHT22;44730;53.158;6.398;2022-08-11T09:46:23;31.50;75.10
58951;DHT22;44730;53.158;6.398;2022-08-11T09:48:55;31.70;73.50
58951;DHT22;44730;53.158;6.398;2022-08-11T09:51:30;31.70;72.60
58951;DHT22;44730;53.158;6.398;2022-08-11T09:53:59;31.90;70.90
58951;DHT22;44730;53.158;6.398;2022-08-11T09:56:25;32.20;69.80
58951;DHT22;44730;53.158;6.398;2022-08-11T09:59:13;32.20;68.10
58951;DHT22;44730;53.158;6.398;2022-08-11T10:01:45;32.40;67.60
58951;DHT22;44730;53.158;6.398;2022-08-11T10:04:42;32.40;66.40
58951;DHT22;44730;53.158;6.398;2022-08-11T10:07:13;32.60;69.10
58951;DHT22;44730;53.158;6.398;2022-08-11T10:09:50;32.70;63.00
58951;DHT22;44730;53.158;6.398;2022-08-11T10:12:31;32.90;64.00
58951;DHT22;44730;53.158;6.398;2022-08-11T10:15:01;32.80;57.40
58951;DHT22;44730;53.158;6.398;2022-08-11T10:17:48;32.70;60.50
58951;DHT22;44730;53.158;6.398;2022-08-11T10:20:37;32.70;59.30
58951;DHT22;44730;53.158;6.398;2022-08-11T10:23:04;32.90;58.20
58951;DHT22;44730;53.158;6.398;2022-08-11T10:25:59;32.80;57.90
58951;DHT22;44730;53.158;6.398;2022-08-11T10:28:44;33.20;58.40
58951;DHT22;44730;53.158;6.398;2022-08-11T10:31:12;33.50;56.00
58951;DHT22;44730;53.158;6.398;2022-08-11T10:33:57;33.40;55.60
58951;DHT22;44730;53.158;6.398;2022-08-11T10:36:27;33.70;55.80
58951;DHT22;44730;53.158;6.398;2022-08-11T10:38:55;33.80;55.90
58951;DHT22;44730;53.158;6.398;2022-08-11T10:41:25;33.90;54.50
58951;DHT22;44730;53.158;6.398;2022-08-11T10:44:11;33.80;53.50
58951;DHT22;44730;53.158;6.398;2022-08-11T10:46:37;33.60;53.50
58951;DHT22;44730;53.158;6.398;2022-08-11T10:49:24;33.60;53.30
58951;DHT22;44730;53.158;6.398;2022-08-11T10:51:51;33.60;53.20
58951;DHT22;44730;53.158;6.398;2022-08-11T10:54:36;33.70;54.30
58951;DHT22;44730;53.158;6.398;2022-08-11T10:57:30;34.20;54.80
58951;DHT22;44730;53.158;6.398;2022-08-11T11:00:15;34.90;54.20
58951;DHT22;44730;53.158;6.398;2022-08-11T11:02:45;34.90;52.80
58951;DHT22;44730;53.158;6.398;2022-08-11T11:08:08;35.00;52.90
58951;DHT22;44730;53.158;6.398;2022-08-11T11:10:53;35.20;51.50
58951;DHT22;44730;53.158;6.398;2022-08-11T11:13:23;35.50;53.10
58951;DHT22;44730;53.158;6.398;2022-08-11T11:16:09;35.70;50.80
58951;DHT22;44730;53.158;6.398;2022-08-11T11:18:56;35.70;52.00
58951;DHT22;44730;53.158;6.398;2022-08-11T11:21:25;36.00;51.20
58951;DHT22;44730;53.158;6.398;2022-08-11T11:26:46;36.60;50.70
58951;DHT22;44730;53.158;6.398;2022-08-11T11:37:24;35.70;49.10
58951;DHT22;44730;53.158;6.398;2022-08-11T11:39:52;35.60;49.60
58951;DHT22;44730;53.158;6.398;2022-08-11T11:42:19;35.70;49.40
58951;DHT22;44730;53.158;6.398;2022-08-11T11:44:46;35.40;48.50
58951;DHT22;44730;53.158;6.398;2022-08-11T11:47:13;35.60;48.40
58951;DHT22;44730;53.158;6.398;2022-08-11T11:49:41;35.70;49.20
58951;DHT22;44730;53.158;6.398;2022-08-11T11:52:16;35.90;48.40
58951;DHT22;44730;53.158;6.398;2022-08-11T11:54:45;35.80;48.20
58951;DHT22;44730;53.158;6.398;2022-08-11T11:57:16;36.10;47.80
58951;DHT22;44730;53.158;6.398;2022-08-11T12:00:05;36.20;47.40
58951;DHT22;44730;53.158;6.398;2022-08-11T12:02:50;35.90;47.70
58951;DHT22;44730;53.158;6.398;2022-08-11T12:05:17;36.10;48.00
58951;DHT22;44730;53.158;6.398;2022-08-11T12:07:44;36.30;47.40
58951;DHT22;44730;53.158;6.398;2022-08-11T12:10:30;36.90;46.40
58951;DHT22;44730;53.158;6.398;2022-08-11T12:13:00;36.80;45.20
58951;DHT22;44730;53.158;6.398;2022-08-11T12:15:48;36.70;47.10
58951;DHT22;44730;53.158;6.398;2022-08-11T12:18:16;37.10;45.60
58951;DHT22;44730;53.158;6.398;2022-08-11T12:20:43;37.10;45.10
58951;DHT22;44730;53.158;6.398;2022-08-11T12:23:11;37.20;44.90
58951;DHT22;44730;53.158;6.398;2022-08-11T12:25:57;37.10;45.10
58951;DHT22;44730;53.158;6.398;2022-08-11T12:28:43;37.10;45.30
58951;DHT22;44730;53.158;6.398;2022-08-11T12:31:12;37.40;45.00
58951;DHT22;44730;53.158;6.398;2022-08-11T12:33:38;37.10;44.40
58951;DHT22;44730;53.158;6.398;2022-08-11T12:36:07;37.10;44.80
58951;DHT22;44730;53.158;6.398;2022-08-11T12:38:34;37.10;45.40
58951;DHT22;44730;53.158;6.398;2022-08-11T12:41:01;37.20;44.90
58951;DHT22;44730;53.158;6.398;2022-08-11T12:43:46;37.00;44.70
58951;DHT22;44730;53.158;6.398;2022-08-11T12:46:35;37.20;44.30
58951;DHT22;44730;53.158;6.398;2022-08-11T12:49:11;37.30;43.50
58951;DHT22;44730;53.158;6.398;2022-08-11T12:51:57;37.80;43.70
58951;DHT22;44730;53.158;6.398;2022-08-11T12:57:02;38.30;42.60
58951;DHT22;44730;53.158;6.398;2022-08-11T12:59:48;38.50;42.50
58951;DHT22;44730;53.158;6.398;2022-08-11T13:02:33;38.60;42.60
58951;DHT22;44730;53.158;6.398;2022-08-11T13:05:19;38.60;42.10
58951;DHT22;44730;53.158;6.398;2022-08-11T13:07:47;38.70;42.40
58951;DHT22;44730;53.158;6.398;2022-08-11T13:10:16;38.70;42.20
58951;DHT22;44730;53.158;6.398;2022-08-11T13:13:05;38.10;41.40
58951;DHT22;44730;53.158;6.398;2022-08-11T13:15:32;37.90;42.10
58951;DHT22;44730;53.158;6.398;2022-08-11T13:18:01;38.00;42.60
58951;DHT22;44730;53.158;6.398;2022-08-11T13:20:28;38.50;42.20
58951;DHT22;44730;53.158;6.398;2022-08-11T13:22:56;38.80;42.10
58951;DHT22;44730;53.158;6.398;2022-08-11T13:25:24;38.90;42.20
58951;DHT22;44730;53.158;6.398;2022-08-11T13:27:54;38.90;42.20
58951;DHT22;44730;53.158;6.398;2022-08-11T13:30:30;38.80;42.90
58951;DHT22;44730;53.158;6.398;2022-08-11T13:33:16;38.60;43.10
58951;DHT22;44730;53.158;6.398;2022-08-11T13:35:45;38.60;42.70
58951;DHT22;44730;53.158;6.398;2022-08-11T13:38:15;38.90;42.80
58951;DHT22;44730;53.158;6.398;2022-08-11T13:40:42;39.20;42.80
58951;DHT22;44730;53.158;6.398;2022-08-11T13:43:13;38.70;42.40
58951;DHT22;44730;53.158;6.398;2022-08-11T13:45:40;38.70;42.70
58951;DHT22;44730;53.158;6.398;2022-08-11T13:48:08;38.30;43.00
58951;DHT22;44730;53.158;6.398;2022-08-11T13:50:35;38.40;42.70
58951;DHT22;44730;53.158;6.398;2022-08-11T13:53:29;38.70;42.70
58951;DHT22;44730;53.158;6.398;2022-08-11T13:55:57;38.80;42.00
58951;DHT22;44730;53.158;6.398;2022-08-11T13:58:25;38.70;42.90
58951;DHT22;44730;53.158;6.398;2022-08-11T14:00:52;38.40;42.90
58951;DHT22;44730;53.158;6.398;2022-08-11T14:03:26;38.60;43.10
58951;DHT22;44730;53.158;6.398;2022-08-11T14:05:53;38.50;42.80
58951;DHT22;44730;53.158;6.398;2022-08-11T14:08:29;38.00;42.10
58951;DHT22;44730;53.158;6.398;2022-08-11T14:11:00;37.60;42.60
58951;DHT22;44730;53.158;6.398;2022-08-11T14:13:45;37.50;42.20
58951;DHT22;44730;53.158;6.398;2022-08-11T14:16:33;38.00;42.10
58951;DHT22;44730;53.158;6.398;2022-08-11T14:19:04;38.10;41.50
58951;DHT22;44730;53.158;6.398;2022-08-11T14:21:35;38.20;41.60
58951;DHT22;44730;53.158;6.398;2022-08-11T14:24:21;38.20;40.90
58951;DHT22;44730;53.158;6.398;2022-08-11T14:26:54;38.10;41.00
58951;DHT22;44730;53.158;6.398;2022-08-11T14:29:26;38.60;41.60
58951;DHT22;44730;53.158;6.398;2022-08-11T14:31:56;38.60;41.10
58951;DHT22;44730;53.158;6.398;2022-08-11T14:34:26;38.50;40.70
58951;DHT22;44730;53.158;6.398;2022-08-11T14:37:03;38.60;40.20
58951;DHT22;44730;53.158;6.398;2022-08-11T14:39:35;38.80;40.10
58951;DHT22;44730;53.158;6.398;2022-08-11T14:42:04;39.00;41.10
58951;DHT22;44730;53.158;6.398;2022-08-11T14:44:53;38.80;40.60
58951;DHT22;44730;53.158;6.398;2022-08-11T14:47:55;38.70;41.10
58951;DHT22;44730;53.158;6.398;2022-08-11T14:50:23;38.50;41.60
58951;DHT22;44730;53.158;6.398;2022-08-11T14:52:55;38.60;42.30
58951;DHT22;44730;53.158;6.398;2022-08-11T14:55:23;38.70;42.20
58951;DHT22;44730;53.158;6.398;2022-08-11T14:58:10;38.50;41.50
58951;DHT22;44730;53.158;6.398;2022-08-11T15:00:40;37.90;41.60
58951;DHT22;44730;53.158;6.398;2022-08-11T15:03:07;38.00;42.10
58951;DHT22;44730;53.158;6.398;2022-08-11T15:05:40;38.10;42.20
58951;DHT22;44730;53.158;6.398;2022-08-11T15:08:07;38.10;41.90
58951;DHT22;44730;53.158;6.398;2022-08-11T15:10:35;38.10;42.60
58951;DHT22;44730;53.158;6.398;2022-08-11T15:13:01;38.00;42.80
58951;DHT22;44730;53.158;6.398;2022-08-11T15:15:29;37.80;42.60
58951;DHT22;44730;53.158;6.398;2022-08-11T15:18:16;37.70;43.20
58951;DHT22;44730;53.158;6.398;2022-08-11T15:20:44;37.20;43.80
58951;DHT22;44730;53.158;6.398;2022-08-11T15:23:29;37.30;44.20
58951;DHT22;44730;53.158;6.398;2022-08-11T15:26:32;37.20;44.10
58951;DHT22;44730;53.158;6.398;2022-08-11T15:29:23;36.90;44.40
58951;DHT22;44730;53.158;6.398;2022-08-11T15:32:10;37.00;44.50
58951;DHT22;44730;53.158;6.398;2022-08-11T15:34:59;36.70;44.90
58951;DHT22;44730;53.158;6.398;2022-08-11T15:37:46;36.60;44.50
58951;DHT22;44730;53.158;6.398;2022-08-11T15:43:15;36.60;44.40
58951;DHT22;44730;53.158;6.398;2022-08-11T15:46:17;36.40;44.60
58951;DHT22;44730;53.158;6.398;2022-08-11T15:48:55;36.30;45.30
58951;DHT22;44730;53.158;6.398;2022-08-11T15:51:45;36.30;44.70
58951;DHT22;44730;53.158;6.398;2022-08-11T15:54:18;36.50;44.70
58951;DHT22;44730;53.158;6.398;2022-08-11T15:56:47;36.50;44.60
58951;DHT22;44730;53.158;6.398;2022-08-11T15:59:17;36.50;44.90
58951;DHT22;44730;53.158;6.398;2022-08-11T16:02:03;36.30;45.00
58951;DHT22;44730;53.158;6.398;2022-08-11T16:04:50;36.10;44.90
58951;DHT22;44730;53.158;6.398;2022-08-11T16:07:20;36.10;45.30
58951;DHT22;44730;53.158;6.398;2022-08-11T16:09:54;36.00;45.40
58951;DHT22;44730;53.158;6.398;2022-08-11T16:12:26;35.70;45.60
58951;DHT22;44730;53.158;6.398;2022-08-11T16:15:00;35.60;45.70
58951;DHT22;44730;53.158;6.398;2022-08-11T16:17:49;35.30;46.20
58951;DHT22;44730;53.158;6.398;2022-08-11T16:20:20;35.30;46.50
58951;DHT22;44730;53.158;6.398;2022-08-11T16:22:48;35.10;46.60
58951;DHT22;44730;53.158;6.398;2022-08-11T16:25:20;35.20;46.60
58951;DHT22;44730;53.158;6.398;2022-08-11T16:27:56;34.70;46.90
58951;DHT22;44730;53.158;6.398;2022-08-11T16:30:35;34.10;47.70
58951;DHT22;44730;53.158;6.398;2022-08-11T16:33:02;32.90;49.10
58951;DHT22;44730;53.158;6.398;2022-08-11T16:35:36;32.00;51.00
58951;DHT22;44730;53.158;6.398;2022-08-11T16:38:24;31.70;51.80
58951;DHT22;44730;53.158;6.398;2022-08-11T16:41:13;31.40;52.80
58951;DHT22;44730;53.158;6.398;2022-08-11T16:43:44;31.10;53.30
58951;DHT22;44730;53.158;6.398;2022-08-11T16:46:31;30.70;53.20
58951;DHT22;44730;53.158;6.398;2022-08-11T16:49:32;30.30;53.50
58951;DHT22;44730;53.158;6.398;2022-08-11T16:52:00;30.10;54.40
58951;DHT22;44730;53.158;6.398;2022-08-11T16:54:31;29.80;54.50
58951;DHT22;44730;53.158;6.398;2022-08-11T16:56:58;29.50;55.30
58951;DHT22;44730;53.158;6.398;2022-08-11T16:59:52;29.30;56.00
58951;DHT22;44730;53.158;6.398;2022-08-11T17:02:21;29.20;56.50
58951;DHT22;44730;53.158;6.398;2022-08-11T17:05:13;29.00;56.40
58951;DHT22;44730;53.158;6.398;2022-08-11T17:08:04;28.80;56.80
58951;DHT22;44730;53.158;6.398;2022-08-11T17:11:01;28.50;57.00
58951;DHT22;44730;53.158;6.398;2022-08-11T17:13:54;28.30;57.20
58951;DHT22;44730;53.158;6.398;2022-08-11T17:16:26;28.10;57.60
58951;DHT22;44730;53.158;6.398;2022-08-11T17:19:05;28.00;58.00
58951;DHT22;44730;53.158;6.398;2022-08-11T17:21:40;27.80;58.20
58951;DHT22;44730;53.158;6.398;2022-08-11T17:24:29;27.70;58.80
58951;DHT22;44730;53.158;6.398;2022-08-11T17:26:56;27.50;59.30
58951;DHT22;44730;53.158;6.398;2022-08-11T17:29:28;27.40;59.60
58951;DHT22;44730;53.158;6.398;2022-08-11T17:31:55;27.20;60.30
58951;DHT22;44730;53.158;6.398;2022-08-11T17:34:46;27.10;60.70
58951;DHT22;44730;53.158;6.398;2022-08-11T17:37:33;27.00;61.10
58951;DHT22;44730;53.158;6.398;2022-08-11T17:40:03;26.90;61.60
58951;DHT22;44730;53.158;6.398;2022-08-11T17:42:30;26.80;62.10
58951;DHT22;44730;53.158;6.398;2022-08-11T17:45:19;26.70;62.50
58951;DHT22;44730;53.158;6.398;2022-08-11T17:48:05;26.60;62.90
58951;DHT22;44730;53.158;6.398;2022-08-11T17:51:02;26.50;63.20
58951;DHT22;44730;53.158;6.398;2022-08-11T17:53:34;26.40;63.60
58951;DHT22;44730;53.158;6.398;2022-08-11T17:56:20;26.30;64.20
58951;DHT22;44730;53.158;6.398;2022-08-11T17:59:07;26.20;64.50
58951;DHT22;44730;53.158;6.398;2022-08-11T18:01:53;26.10;65.00
58951;DHT22;44730;53.158;6.398;2022-08-11T18:04:41;26.00;65.60
58951;DHT22;44730;53.158;6.398;2022-08-11T18:07:09;25.90;65.60
58951;DHT22;44730;53.158;6.398;2022-08-11T18:09:53;25.80;66.10
58951;DHT22;44730;53.158;6.398;2022-08-11T18:12:45;25.80;66.60
58951;DHT22;44730;53.158;6.398;2022-08-11T18:15:30;25.70;66.80
58951;DHT22;44730;53.158;6.398;2022-08-11T18:18:15;25.70;68.30
58951;DHT22;44730;53.158;6.398;2022-08-11T18:20:59;25.70;68.40
58951;DHT22;44730;53.158;6.398;2022-08-11T18:23:45;25.60;68.40
58951;DHT22;44730;53.158;6.398;2022-08-11T18:26:31;25.50;69.00
58951;DHT22;44730;53.158;6.398;2022-08-11T18:29:17;25.40;69.30
58951;DHT22;44730;53.158;6.398;2022-08-11T18:32:03;25.20;69.70
58951;DHT22;44730;53.158;6.398;2022-08-11T18:34:49;25.10;70.60
58951;DHT22;44730;53.158;6.398;2022-08-11T18:37:44;25.10;71.30
58951;DHT22;44730;53.158;6.398;2022-08-11T18:40:31;24.90;72.70
58951;DHT22;44730;53.158;6.398;2022-08-11T18:43:18;24.80;73.50
58951;DHT22;44730;53.158;6.398;2022-08-11T18:46:17;24.70;74.70
58951;DHT22;44730;53.158;6.398;2022-08-11T18:49:08;24.60;76.60
58951;DHT22;44730;53.158;6.398;2022-08-11T18:51:54;24.50;79.80
58951;DHT22;44730;53.158;6.398;2022-08-11T18:54:40;24.30;83.20
58951;DHT22;44730;53.158;6.398;2022-08-11T18:57:27;24.10;87.70
58951;DHT22;44730;53.158;6.398;2022-08-11T19:00:13;24.00;91.20
58951;DHT22;44730;53.158;6.398;2022-08-11T19:02:59;23.80;93.70
58951;DHT22;44730;53.158;6.398;2022-08-11T19:05:45;23.70;95.80
58951;DHT22;44730;53.158;6.398;2022-08-11T19:08:36;23.60;97.90
58951;DHT22;44730;53.158;6.398;2022-08-11T19:11:24;23.50;99.20
58951;DHT22;44730;53.158;6.398;2022-08-11T19:14:11;23.30;99.90
58951;DHT22;44730;53.158;6.398;2022-08-11T19:16:59;23.20;99.90
58951;DHT22;44730;53.158;6.398;2022-08-11T19:19:45;23.00;99.90
58951;DHT22;44730;53.158;6.398;2022-08-11T19:22:31;22.90;99.90
58951;DHT22;44730;53.158;6.398;2022-08-11T19:25:17;22.80;99.90
58951;DHT22;44730;53.158;6.398;2022-08-11T19:28:05;22.70;99.90
58951;DHT22;44730;53.158;6.398;2022-08-11T19:30:52;22.60;99.90
58951;DHT22;44730;53.158;6.398;2022-08-11T19:33:38;22.50;99.90
58951;DHT22;44730;53.158;6.398;2022-08-11T19:36:25;22.40;99.90
58951;DHT22;44730;53.158;6.398;2022-08-11T19:39:11;22.20;99.90
58951;DHT22;44730;53.158;6.398;2022-08-11T19:41:57;22.20;99.90
58951;DHT22;44730;53.158;6.398;2022-08-11T19:44:43;22.10;99.90
58951;DHT22;44730;53.158;6.398;2022-08-11T19:47:30;22.00;99.90
58951;DHT22;44730;53.158;6.398;2022-08-11T19:50:16;22.10;99.90
58951;DHT22;44730;53.158;6.398;2022-08-11T19:53:03;21.80;99.90
58951;DHT22;44730;53.158;6.398;2022-08-11T19:55:48;21.70;99.90
58951;DHT22;44730;53.158;6.398;2022-08-11T19:58:35;21.60;99.90
58951;DHT22;44730;53.158;6.398;2022-08-11T20:01:21;21.50;99.90
58951;DHT22;44730;53.158;6.398;2022-08-11T20:04:06;21.50;99.90
58951;DHT22;44730;53.158;6.398;2022-08-11T20:06:54;21.40;99.90
58951;DHT22;44730;53.158;6.398;2022-08-11T20:09:42;21.30;99.90
58951;DHT22;44730;53.158;6.398;2022-08-11T20:12:28;21.30;99.90
58951;DHT22;44730;53.158;6.398;2022-08-11T20:15:17;21.20;99.90
58951;DHT22;44730;53.158;6.398;2022-08-11T20:18:05;21.20;99.90
58951;DHT22;44730;53.158;6.398;2022-08-11T20:20:53;21.10;99.90